THY404 LTFM-LTFD
Flight info
| Callsign | THY404 |
|---|---|
| Flight time | N/A |
| Altitude | 28000 |
| Route | IVGUS1E/36 IVGUS UY226 BIG UN618 KONEN |
| Aircraft | A319/M-SDE3FGHIRWY/LB1 |
Departure
| Time | 2026-05-05 16:44 |
|---|---|
| Airport | İstanbul Airport (LTFM) |
Arrival
| Time | N/A |
|---|---|
| Airport | Balıkesir Koca Seyit Airport (LTFD) |
| Time | Latitude | Longitude | Altitude | Speed | Heading |
|---|---|---|---|---|---|
| 2026-05-05 16:18 | 41.26335 | 28.74916 | 333 ft | 0 kts | 288° |
| 2026-05-05 16:36 | 41.26332 | 28.74928 | 334 ft | 2 kts | 287° |
| 2026-05-05 16:36 | 41.26329 | 28.74939 | 334 ft | 2 kts | 285° |
| 2026-05-05 16:36 | 41.26327 | 28.74959 | 334 ft | 2 kts | 269° |
| 2026-05-05 16:36 | 41.26329 | 28.74979 | 334 ft | 2 kts | 256° |
| 2026-05-05 16:37 | 41.26334 | 28.74998 | 334 ft | 2 kts | 243° |
| 2026-05-05 16:37 | 41.26342 | 28.75014 | 334 ft | 2 kts | 230° |
| 2026-05-05 16:37 | 41.26352 | 28.75028 | 334 ft | 2 kts | 217° |
| 2026-05-05 16:37 | 41.26365 | 28.75038 | 334 ft | 2 kts | 204° |
| 2026-05-05 16:38 | 41.26373 | 28.75042 | 334 ft | 1 kts | 195° |
| 2026-05-05 16:38 | 41.26376 | 28.75043 | 334 ft | 0 kts | 197° |
| 2026-05-05 16:39 | 41.26375 | 28.75043 | 334 ft | 0 kts | 197° |
| 2026-05-05 16:40 | 41.26329 | 28.75023 | 334 ft | 12 kts | 198° |
| 2026-05-05 16:40 | 41.26247 | 28.75013 | 334 ft | 11 kts | 149° |
| 2026-05-05 16:40 | 41.26228 | 28.75092 | 334 ft | 9 kts | 86° |
| 2026-05-05 16:40 | 41.26230 | 28.75196 | 334 ft | 11 kts | 90° |
| 2026-05-05 16:41 | 41.26231 | 28.75281 | 334 ft | 8 kts | 89° |
| 2026-05-05 16:41 | 41.26231 | 28.75308 | 334 ft | 0 kts | 89° |
| 2026-05-05 16:41 | 41.26231 | 28.75310 | 334 ft | 2 kts | 89° |
| 2026-05-05 16:42 | 41.26232 | 28.75385 | 334 ft | 8 kts | 89° |
| 2026-05-05 16:42 | 41.26233 | 28.75470 | 334 ft | 8 kts | 89° |
| 2026-05-05 16:42 | 41.26234 | 28.75528 | 334 ft | 7 kts | 89° |
| 2026-05-05 16:42 | 41.26236 | 28.75619 | 334 ft | 14 kts | 88° |
| 2026-05-05 16:43 | 41.26257 | 28.75673 | 334 ft | 4 kts | 352° |
| 2026-05-05 16:43 | 41.26267 | 28.75671 | 334 ft | 0 kts | 356° |
| 2026-05-05 16:44 | 41.26344 | 28.75668 | 334 ft | 40 kts | 360° |
| 2026-05-05 16:44 | 41.26889 | 28.75659 | 334 ft | 113 kts | 359° |
| 2026-05-05 16:44 | 41.27874 | 28.75636 | 425 ft | 161 kts | 0° |
| 2026-05-05 16:44 | 41.28978 | 28.75653 | 1163 ft | 159 kts | 2° |
| 2026-05-05 16:45 | 41.30047 | 28.75709 | 2038 ft | 154 kts | 5° |
| 2026-05-05 16:45 | 41.31046 | 28.75897 | 2792 ft | 147 kts | 13° |
| 2026-05-05 16:45 | 41.32027 | 28.76362 | 3346 ft | 155 kts | 29° |
| 2026-05-05 16:45 | 41.32724 | 28.77502 | 3806 ft | 175 kts | 66° |
| 2026-05-05 16:46 | 41.33072 | 28.79151 | 4229 ft | 196 kts | 70° |
| 2026-05-05 16:46 | 41.33598 | 28.80862 | 4747 ft | 209 kts | 54° |
| 2026-05-05 16:46 | 41.34500 | 28.82487 | 5285 ft | 228 kts | 47° |
| 2026-05-05 16:46 | 41.35571 | 28.84144 | 5907 ft | 244 kts | 46° |
| 2026-05-05 16:47 | 41.36704 | 28.85849 | 6642 ft | 257 kts | 48° |
| 2026-05-05 16:47 | 41.37717 | 28.87858 | 7470 ft | 269 kts | 63° |
| 2026-05-05 16:47 | 41.37946 | 28.90349 | 8385 ft | 284 kts | 95° |
| 2026-05-05 16:47 | 41.37175 | 28.92759 | 9282 ft | 297 kts | 124° |
| 2026-05-05 16:48 | 41.35599 | 28.94549 | 10148 ft | 308 kts | 151° |
| 2026-05-05 16:48 | 41.33497 | 28.95435 | 10620 ft | 329 kts | 174° |
| 2026-05-05 16:48 | 41.31157 | 28.95485 | 11075 ft | 346 kts | 181° |
| 2026-05-05 16:48 | 41.28710 | 28.95264 | 11713 ft | 357 kts | 185° |
| 2026-05-05 16:49 | 41.26264 | 28.94900 | 12506 ft | 360 kts | 192° |
| 2026-05-05 16:49 | 41.23866 | 28.93940 | 13292 ft | 363 kts | 205° |
| 2026-05-05 16:49 | 41.21604 | 28.92400 | 14058 ft | 365 kts | 211° |
| 2026-05-05 16:49 | 41.19405 | 28.90734 | 14779 ft | 370 kts | 212° |
| 2026-05-05 16:50 | 41.17178 | 28.89047 | 15519 ft | 373 kts | 211° |
| 2026-05-05 16:50 | 41.14890 | 28.87352 | 16274 ft | 376 kts | 211° |
| 2026-05-05 16:50 | 41.12750 | 28.85403 | 16965 ft | 376 kts | 227° |
| 2026-05-05 16:50 | 41.11135 | 28.82740 | 17676 ft | 375 kts | 238° |
| 2026-05-05 16:51 | 41.09677 | 28.79853 | 18365 ft | 378 kts | 239° |
| 2026-05-05 16:51 | 41.08215 | 28.76951 | 19033 ft | 381 kts | 238° |